N7DTY Weather Reports


time (UTC)temp
C
wind
direction
speed
KPH
gust
KPH
rain 1hr
cm
rain 24hr
cm
rain mn
cm
humidity
%
barometer
mb
20200531081620 10 194 6.4 16.1 0.00 1.63 0.00 94 1013.5
20200531080153 10 192 3.2 11.3 0.00 1.63 0.00 95 1013.2
20200531074619 10 165 3.2 9.7 0.00 1.63 0.00 95 1013.2
20200531073106 10 200 4.8 20.9 0.00 1.63 0.00 95 1013.1
20200531071556 10 196 4.8 12.9 0.00 1.63 0.00 95 1012.9
20200531070124 10 227 3.2 14.5 0.00 1.63 0.00 95 1012.9
20200531064531 10 173 4.8 14.5 0.03 1.63 1.63 96 1012.5
20200531063055 10 212 3.2 8.0 0.05 1.63 1.63 96 1012.5
20200531061534 10 181 3.2 17.7 0.05 1.63 1.63 96 1012.7
20200531060111 10 176 3.2 14.5 0.05 1.63 1.63 96 1012.7
20200531054532 10 178 4.8 20.9 0.03 1.60 1.60 96 1012.7
20200531053048 10 229 6.4 20.9 0.00 1.57 1.57 96 1012.7
20200531051524 10 142 3.2 16.1 0.03 1.57 1.57 96 1012.4
20200531050029 10 129 4.8 16.1 0.03 1.57 1.57 96 1011.9
20200531044550 10 196 6.4 16.1 0.05 1.57 1.57 96 1011.7
20200531043115 10 171 4.8 11.3 0.08 1.57 1.57 97 1011.7
20200531041552 10 194 1.6 6.4 0.08 1.55 1.55 97 1011.3
20200531040019 10 182 1.6 11.3 0.13 1.55 1.55 97 1011.7
20200531034520 10 171 3.2 11.3 0.13 1.52 1.52 97 1011.8
20200531033043 10 184 3.2 12.9 0.13 1.50 1.50 96 1012.3
20200531031516 10 178 6.4 19.3 0.13 1.45 1.45 96 1012.8
20200531030039 10 171 8.0 25.7 0.10 1.42 1.42 96 1012.9
20200531024523 10 78 8.0 30.6 0.15 1.40 1.40 96 1012.7
20200531023013 10 142 11.3 25.7 0.25 1.37 1.37 96 1012.4
20200531021508 11 166 8.0 22.5 0.33 1.35 1.35 96 1011.9
20200531020006 11 155 4.8 16.1 0.43 1.32 1.32 97 1011.4
20200531014507 11 171 4.8 24.1 0.46 1.24 1.24 97 1011.1
20200531013007 11 193 4.8 12.9 0.36 1.12 1.12 97 1010.7
20200531011503 11 183 6.4 29.0 0.30 1.02 1.02 97 1010.9
20200531010211 11 205 8.0 19.3 0.20 0.89 0.89 97 1010.7
20200531004644 11 190 4.8 11.3 0.20 0.79 0.79 97 1010.3
20200531003151 11 180 3.2 6.4 0.25 0.76 0.76 97 1009.5
20200531001736 11 227 3.2 8.0 0.23 0.71 0.71 97 1009.2
20200531000218 11 200 1.6 3.2 0.23 0.69 0.69 96 1009.2
20200530234718 11 193 1.6 4.8 0.15 0.58 0.58 96 1009.6
20200530233313 11 210 0.0 3.2 0.08 0.51 0.51 96 1009.4
20200530231629 11 273 0.0 1.6 0.08 0.48 0.48 96 1009.2
20200530230118 11 293 0.0 3.2 0.08 0.46 0.46 96 1008.9
20200530224615 11 166 0.0 1.6 0.08 0.43 0.43 96 1009.6
20200530223143 11 166 0.0 4.8 0.13 0.43 0.43 96 1009.7
20200530221609 11 180 0.0 4.8 0.10 0.41 0.41 96 1010.0
20200530220052 11 214 0.0 3.2 0.10 0.38 0.38 96 1009.7
20200530214642 11 214 0.0 1.6 0.08 0.36 0.36 96 1009.7
20200530213111 11 214 0.0 1.6 0.03 0.30 0.30 96 1009.9
20200530211630 11 214 0.0 3.2 0.05 0.30 0.30 96 1010.0
20200530210143 11 214 0.0 3.2 0.03 0.28 0.28 95 1010.1
20200530204630 11 214 0.0 3.2 0.03 0.28 0.28 95 1009.9
20200530203046 11 212 0.0 1.6 0.03 0.28 0.28 95 1010.2
20200530201619 11 211 0.0 1.6 0.00 0.25 0.25 95 1010.8
20200530200101 11 212 0.0 3.2 0.00 0.25 0.25 95 1010.6
20200530194545 11 157 0.0 4.8 0.00 0.25 0.25 95 1010.9
20200530193143 11 114 0.0 4.8 0.00 0.25 0.25 95 1010.8
20200530191606 11 197 0.0 3.2 0.05 0.25 0.25 94 1010.8
20200530190110 11 136 1.6 4.8 0.08 0.25 0.25 96 1011.1
20200530184547 11 232 0.0 3.2 0.10 0.25 0.25 95 1010.9
20200530183101 11 232 0.0 3.2 0.13 0.25 0.25 96 1011.3
20200530181544 11 350 0.0 3.2 0.10 0.20 0.20 95 1010.2
20200530180040 11 217 0.0 1.6 0.13 0.18 0.18 95 1010.9
20200530174541 11 217 0.0 4.8 0.15 0.15 0.15 95 1011.9
20200530173035 11 223 0.0 9.7 0.13 0.13 0.13 94 1011.9
20200530171629 12 208 3.2 14.5 0.10 0.10 0.10 93 1012.3
20200530170034 12 189 4.8 16.1 0.05 0.05 0.05 91 1012.2
20200530164541 12 180 1.6 12.9 0.00 0.00 0.00 91 1011.9
20200530163033 12 215 6.4 17.7 0.00 0.00 0.00 90 1011.7
20200530161555 12 203 3.2 17.7 0.00 0.00 0.00 90 1010.5
20200530160026 12 198 3.2 12.9 0.00 0.00 0.00 89 1010.0
20200530154530 12 178 1.6 9.7 0.00 0.00 0.00 88 1009.3
20200530153022 12 185 3.2 14.5 0.00 0.00 0.00 88 1009.2
20200530151524 12 207 1.6 9.7 0.00 0.00 0.00 88 1009.0
20200530150027 12 196 1.6 11.3 0.00 0.00 0.00 88 1009.3
20200530144514 12 145 1.6 11.3 0.00 0.00 0.00 88 1009.5
20200530143011 12 173 1.6 4.8 0.00 0.00 0.00 88 1009.5
20200530141510 12 196 1.6 12.9 0.00 0.00 0.00 88 1009.7
20200530140014 12 218 0.0 6.4 0.00 0.00 0.00 89 1010.0
20200530134508 12 194 1.6 9.7 0.00 0.00 0.00 89 1010.1
20200530133009 12 153 1.6 6.4 0.00 0.00 0.00 88 1010.1
20200530131552 12 171 0.0 4.8 0.00 0.00 0.00 89 1010.0
20200530130008 11 198 1.6 4.8 0.00 0.00 0.00 89 1009.9
20200530124506 11 194 0.0 4.8 0.00 0.00 0.00 89 1009.9
20200530123007 11 186 0.0 1.6 0.00 0.00 0.00 89 1009.9
20200530121504 11 186 1.6 4.8 0.00 0.00 0.00 90 1009.9
20200530120007 11 178 1.6 4.8 0.00 0.00 0.00 90 1010.1
20200530114502 11 217 0.0 3.2 0.00 0.00 0.00 88 1009.9
20200530113112 11 217 1.6 4.8 0.00 0.00 0.00 89 1010.3
20200530113001 11 156 1.6 4.8 0.00 0.00 0.00 89 1010.3
20200530111647 11 167 0.0 4.8 0.00 0.00 0.00 89 1010.5
20200530110203 11 186 3.2 8.0 0.00 0.00 0.00 88 1010.4
20200530104709 11 186 0.0 6.4 0.00 0.00 0.00 87 1010.3
20200530103118 11 202 3.2 9.7 0.00 0.00 0.00 87 1010.5
20200530101623 11 202 4.8 14.5 0.00 0.00 0.00 87 1010.3
20200530100141 12 211 1.6 14.5 0.00 0.00 0.00 87 1010.3
20200530094650 12 190 3.2 9.7 0.00 0.00 0.00 85 1010.4
20200530093128 12 146 3.2 11.3 0.00 0.00 0.00 84 1010.4
20200530091610 12 149 1.6 8.0 0.00 0.00 0.00 85 1010.4
20200530090139 12 254 0.0 3.2 0.00 0.00 0.00 82 1010.3
20200530084622 12 254 0.0 4.8 0.00 0.00 0.00 82 1010.3
20200530083135 12 64 0.0 3.2 0.00 0.00 0.00 81 1010.6